Philadelphia, Pennsylvania
Traffic Map
Current Weather Conditions
Philadelphia, Pennsylvania
Few Clouds
Few Clouds
55°
Feels Like: 55°
Wind Chill: 55° Ceiling: Unl
Heat Index: 55° Visibility: 10mi
Dew Point: 15° Wind: 14mph
Humidity: 21% Direction: 290° (WNW)
Pressure: 29.89in Gusts: 0mph
Raw Report DataKPHL 242354Z 29012KT 10SM FEW100 FEW250 13/M09 A2989 RMK AO2 SLP121 T01281094 10139 20106 53006 $
Traffic Incident Summary
Active as of:
Severity:
Category:
InformationThere was an issue retrieving the traffic information for this location. Please try a different location or try again shortly.
Advertisements
Track Severe Weather on mobile